createdAt,value
2023-01-28T00:04:24.137Z,83.30
2023-01-28T00:09:27.786Z,83.30
2023-01-28T00:14:31.355Z,83.30
2023-01-28T00:19:36.324Z,83.30
2023-01-28T00:24:39.747Z,83.10
2023-01-28T00:29:43.433Z,83.10
2023-01-28T00:34:50.105Z,83.30
2023-01-28T00:39:53.512Z,83.60
2023-01-28T00:44:56.907Z,83.90
2023-01-28T00:50:01.673Z,84.10
2023-01-28T00:55:05.739Z,84.30
2023-01-28T01:00:10.505Z,84.40
2023-01-28T01:05:16.132Z,84.40
2023-01-28T01:10:21.136Z,84.40
2023-01-28T01:15:24.918Z,84.50
2023-01-28T01:20:33.450Z,84.40
2023-01-28T01:25:36.883Z,84.20
2023-01-28T01:30:40.318Z,84.40
2023-01-28T01:35:45.301Z,84.50
2023-01-28T01:40:48.851Z,84.70
2023-01-28T01:45:55.217Z,84.40
2023-01-28T01:51:03.167Z,85.40
2023-01-28T01:56:09.566Z,84.10
2023-01-28T02:01:14.501Z,84.10
2023-01-28T02:06:19.271Z,83.80
2023-01-28T02:11:24.203Z,84.20
2023-01-28T02:16:29.004Z,84.30
2023-01-28T02:22:08.774Z,84.40
2023-01-28T02:27:22.906Z,84.30
2023-01-28T02:32:34.001Z,84.30
2023-01-28T02:37:42.703Z,84.60
2023-01-28T02:42:46.091Z,84.60
2023-01-28T02:48:00.123Z,85.40
2023-01-28T02:53:31.755Z,84.20
2023-01-28T02:58:40.200Z,84.50
2023-01-28T03:03:55.639Z,84.50
2023-01-28T03:09:21.494Z,84.10
2023-01-28T03:14:44.098Z,84.10
2023-01-28T03:20:07.787Z,84.20
2023-01-28T03:25:33.139Z,84.10
2023-01-28T03:31:01.738Z,84.40
2023-01-28T03:36:26.994Z,84.30
2023-01-28T03:41:30.419Z,84.50
2023-01-28T03:46:35.914Z,84.50
2023-01-28T03:51:40.940Z,84.60
2023-01-28T03:56:44.323Z,84.60
2023-01-28T04:01:50.710Z,84.50
2023-01-28T04:06:56.541Z,84.50
2023-01-28T04:12:00.205Z,84.00
2023-01-28T04:17:03.687Z,84.40
2023-01-28T04:22:12.568Z,84.40
2023-01-28T04:27:15.976Z,84.30
2023-01-28T04:32:19.649Z,84.60
2023-01-28T04:37:24.483Z,84.60
2023-01-28T04:42:27.896Z,84.40
2023-01-28T04:47:31.724Z,84.30
2023-01-28T04:52:36.497Z,84.50
2023-01-28T04:57:39.865Z,84.70
2023-01-28T05:02:43.274Z,84.60
2023-01-28T05:07:52.387Z,84.60
2023-01-28T05:12:56.088Z,84.70
2023-01-28T05:18:00.144Z,85.10
2023-01-28T05:23:05.506Z,85.00
2023-01-28T05:28:09.282Z,85.40
2023-01-28T05:33:12.700Z,85.40
2023-01-28T05:38:18.049Z,85.10
2023-01-28T05:43:22.256Z,85.00
2023-01-28T05:48:25.704Z,85.10
2023-01-28T05:53:30.513Z,84.90
2023-01-28T05:58:34.028Z,85.30
2023-01-28T06:03:37.402Z,85.40
2023-01-28T06:08:42.297Z,85.60
2023-01-28T06:13:45.684Z,85.30
2023-01-28T06:18:49.122Z,85.30
2023-01-28T06:23:54.291Z,85.20
2023-01-28T06:28:57.662Z,85.70
2023-01-28T06:34:01.097Z,85.60
2023-01-28T06:39:06.038Z,85.50
2023-01-28T06:44:09.829Z,85.40
2023-01-28T06:49:13.242Z,85.40
2023-01-28T06:54:18.054Z,85.10
2023-01-28T06:59:21.734Z,85.10
2023-01-28T07:04:25.213Z,85.50
2023-01-28T07:09:30.029Z,85.60
2023-01-28T07:14:33.417Z,85.40
2023-01-28T07:19:38.002Z,85.50
2023-01-28T07:24:43.554Z,85.20
2023-01-28T07:29:47.071Z,85.10
2023-01-28T07:34:50.650Z,85.40
2023-01-28T07:39:55.802Z,85.20
2023-01-28T07:44:59.230Z,85.10
2023-01-28T07:50:02.620Z,85.30
2023-01-28T07:55:08.072Z,85.70
2023-01-28T08:00:13.290Z,85.50
2023-01-28T08:05:18.308Z,85.30
2023-01-28T08:10:23.139Z,85.10
2023-01-28T08:15:27.587Z,85.40
2023-01-28T08:20:31.708Z,85.10
2023-01-28T08:25:37.655Z,85.40
2023-01-28T08:30:41.327Z,85.30
2023-01-28T08:35:45.401Z,85.20
2023-01-28T08:40:51.134Z,85.10
2023-01-28T08:45:54.500Z,85.10
2023-01-28T08:51:00.209Z,85.10
2023-01-28T08:56:05.346Z,85.40
2023-01-28T09:01:08.853Z,85.40
2023-01-28T09:06:12.484Z,85.40
2023-01-28T09:11:17.313Z,85.50
2023-01-28T09:16:21.519Z,85.50
2023-01-28T09:21:24.922Z,85.10
2023-01-28T09:26:29.997Z,83.70
2023-01-28T09:31:33.510Z,83.50
2023-01-28T09:36:37.378Z,86.40
2023-01-28T09:41:56.008Z,88.00
2023-01-28T09:47:02.920Z,89.20
2023-01-28T09:52:06.462Z,88.90
2023-01-28T09:57:18.453Z,88.20
2023-01-28T10:02:36.634Z,88.40
2023-01-28T10:07:49.567Z,88.20
2023-01-28T10:13:21.774Z,88.40
2023-01-28T10:18:36.234Z,90.10
2023-01-28T10:23:48.952Z,89.10
2023-01-28T10:28:58.158Z,89.30
2023-01-28T10:34:02.054Z,90.00
2023-01-28T10:39:06.795Z,90.00
2023-01-28T10:44:18.329Z,90.00
2023-01-28T10:49:26.478Z,89.60
2023-01-28T10:54:30.627Z,88.90
2023-01-28T10:59:41.652Z,88.90
2023-01-28T11:04:45.028Z,89.30
2023-01-28T11:09:50.253Z,89.80
2023-01-28T11:14:56.931Z,90.10
2023-01-28T11:20:02.697Z,90.80
2023-01-28T11:25:15.475Z,90.30
2023-01-28T11:30:25.499Z,90.10
2023-01-28T11:35:30.849Z,88.90
2023-01-28T11:40:34.345Z,88.30
2023-01-28T11:45:45.389Z,87.50
2023-01-28T11:50:58.303Z,86.80
2023-01-28T11:56:17.434Z,86.80
2023-01-28T12:01:27.826Z,86.70
2023-01-28T12:06:47.039Z,86.20
2023-01-28T12:12:12.797Z,85.30
2023-01-28T12:17:26.450Z,84.80
2023-01-28T12:22:59.153Z,84.10
2023-01-28T12:28:12.347Z,83.10
2023-01-28T12:33:50.339Z,82.30
2023-01-28T12:39:05.302Z,81.60
2023-01-28T12:44:13.000Z,81.10
2023-01-28T12:49:22.959Z,80.60
2023-01-28T12:54:30.131Z,80.80
2023-01-28T12:59:40.751Z,80.70
2023-01-28T13:04:52.656Z,80.50
2023-01-28T13:10:04.820Z,80.10
2023-01-28T13:15:15.297Z,80.40
2023-01-28T13:20:37.693Z,80.50
2023-01-28T13:25:50.406Z,80.00
2023-01-28T13:31:02.835Z,79.30
2023-01-28T13:36:23.694Z,79.00
2023-01-28T13:41:38.897Z,78.90
2023-01-28T13:46:42.536Z,78.50
2023-01-28T13:51:59.691Z,78.70
2023-01-28T13:57:39.231Z,78.50
2023-01-28T14:03:21.271Z,78.40
2023-01-28T14:09:04.592Z,77.60
2023-01-28T14:14:42.521Z,78.10
2023-01-28T14:19:47.277Z,77.70
2023-01-28T14:24:52.635Z,77.20
2023-01-28T14:30:07.920Z,75.40
2023-01-28T14:35:17.442Z,74.70
2023-01-28T14:40:22.749Z,76.80
2023-01-28T14:45:50.513Z,78.60
2023-01-28T14:51:07.119Z,79.60
2023-01-28T14:56:21.742Z,80.00
2023-01-28T15:01:26.998Z,80.10
2023-01-28T15:06:36.592Z,80.30
2023-01-28T15:11:45.018Z,80.50
2023-01-28T15:16:50.197Z,78.80
2023-01-28T15:21:57.690Z,79.00
2023-01-28T15:27:03.092Z,78.60
2023-01-28T15:32:07.212Z,80.70
2023-01-28T15:37:13.172Z,79.20
2023-01-28T15:42:23.223Z,78.00
2023-01-28T15:47:30.119Z,77.20
2023-01-28T15:52:36.010Z,76.00
2023-01-28T15:57:40.811Z,75.00
2023-01-28T16:02:46.130Z,75.00
2023-01-28T16:07:49.732Z,74.40
2023-01-28T16:12:57.335Z,74.00
2023-01-28T16:18:00.806Z,74.10
2023-01-28T16:23:05.167Z,74.10
2023-01-28T16:28:18.212Z,72.70
2023-01-28T16:33:22.977Z,72.50
2023-01-28T16:43:31.614Z,71.50
2023-01-28T16:48:35.061Z,71.60
2023-01-28T16:53:39.258Z,72.10
2023-01-28T16:58:46.700Z,72.60
2023-01-28T17:03:50.679Z,71.70
2023-01-28T17:08:54.080Z,72.50
2023-01-28T17:13:58.967Z,70.30
2023-01-28T17:19:02.345Z,70.70
2023-01-28T17:24:07.506Z,70.30
2023-01-28T17:29:12.354Z,69.70
2023-01-28T17:34:15.929Z,69.20
2023-01-28T17:39:19.748Z,69.20
2023-01-28T17:44:24.713Z,70.30
2023-01-28T17:49:29.323Z,70.20
2023-01-28T17:54:34.692Z,69.30
2023-01-28T17:59:41.883Z,68.50
2023-01-28T18:04:45.365Z,68.80
2023-01-28T18:09:50.009Z,69.20
2023-01-28T18:14:56.643Z,68.30
2023-01-28T18:20:00.391Z,68.80
2023-01-28T18:25:05.394Z,68.80
2023-01-28T18:30:11.906Z,68.70
2023-01-28T18:35:16.006Z,68.80
2023-01-28T18:40:19.727Z,69.40
2023-01-28T18:45:26.264Z,69.00
2023-01-28T18:50:32.370Z,68.80
2023-01-28T18:55:37.115Z,67.90
2023-01-28T19:00:45.099Z,67.60
2023-01-28T19:05:48.558Z,68.70
2023-01-28T19:10:56.995Z,67.50
2023-01-28T19:16:04.507Z,70.00
2023-01-28T19:21:11.381Z,71.20
2023-01-28T19:26:18.223Z,72.70
2023-01-28T19:31:25.154Z,72.70
2023-01-28T19:36:29.998Z,73.50
2023-01-28T19:41:33.510Z,74.20
2023-01-28T19:46:38.757Z,73.30
2023-01-28T19:51:42.125Z,71.60
2023-01-28T19:56:45.539Z,70.20
2023-01-28T20:01:50.673Z,69.50
2023-01-28T20:06:54.193Z,69.10
2023-01-28T20:11:57.954Z,69.20
2023-01-28T20:17:02.752Z,69.00
2023-01-28T20:22:06.545Z,68.00
2023-01-28T20:27:10.021Z,67.50
2023-01-28T20:32:19.115Z,67.20
2023-01-28T20:37:23.720Z,67.70
2023-01-28T20:42:27.143Z,67.90
2023-01-28T20:47:32.546Z,67.80
2023-01-28T20:52:35.954Z,68.10
2023-01-28T20:57:39.350Z,68.00
2023-01-28T21:02:46.028Z,67.90
2023-01-28T21:07:51.993Z,67.90
2023-01-28T21:12:55.440Z,67.70
2023-01-28T21:18:00.243Z,67.60
2023-01-28T21:23:03.671Z,67.50
2023-01-28T21:28:07.293Z,67.50
2023-01-28T21:33:12.529Z,66.80
2023-01-28T21:38:15.965Z,67.50
2023-01-28T21:43:20.162Z,67.60
2023-01-28T21:48:25.611Z,67.70
2023-01-28T21:53:29.111Z,67.40
2023-01-28T21:58:50.302Z,67.70
2023-01-28T22:03:55.182Z,67.70
2023-01-28T22:08:58.612Z,67.90
2023-01-28T22:14:02.051Z,67.80
2023-01-28T22:19:07.119Z,67.70
2023-01-28T22:24:12.715Z,68.10
2023-01-28T22:29:20.805Z,67.90
2023-01-28T22:34:25.955Z,68.60
2023-01-28T22:39:29.516Z,69.20
2023-01-28T22:44:33.023Z,69.80
2023-01-28T22:49:37.931Z,70.00
2023-01-28T22:54:41.365Z,70.40
2023-01-28T22:59:59.315Z,70.70
2023-01-28T23:05:05.522Z,71.00
2023-01-28T23:10:10.632Z,71.50
2023-01-28T23:15:31.949Z,72.10
2023-01-28T23:20:57.437Z,73.10
2023-01-28T23:26:01.158Z,73.40
2023-01-28T23:31:04.855Z,74.30
2023-01-28T23:36:10.133Z,73.20
2023-01-28T23:41:13.547Z,73.10
2023-01-28T23:46:19.394Z,72.80
2023-01-28T23:51:25.978Z,72.70
2023-01-28T23:56:29.612Z,72.70
